Terminal Aerodrome Forecast
Issued by NWS

Home | Current Version | Previous Version | Text Only | Print | Product List | Glossary Off
Versions: 1 2 3 4 5 6 7 8 9 10 11 12 13 14 15 16 17 18 19 20 21 22 23

000
FTUS43 KBIS 281700
TAFJMS
TAF
KJMS 281725Z 2818/2918 28003KT 1/4SM FZFG VV002
     FM282100 33019G27KT 6SM BR SCT004 OVC007
     FM290100 33022G33KT 6SM BR OVC008
     FM290800 31014G19KT P6SM OVC010=

USA.gov is the U.S. government's official web portal to all federal, state and local government web resources and services.